LFCR/RDZ METAR and TAF weather

Enter ICAO airport designator
Station Type Date Time Source
LFCR METAR 2018/12/15 03:00 UTC NOAA

LFCR 150300Z AUTO 13001KT 9999 // SCT007 M03/M04 Q1020


Station Type Date Time Source
LFCR Decoded METAR 2018/12/15 03:00 UTC NOAA

Rodez, France (LFCR) 44-24N 002-29E 580M
Dec 14, 2018 - 10:00 PM EST / 2018.12.15 0300 UTC
Wind: from the SE (130 degrees) at 1 MPH (1 KT):0
Visibility: greater than 7 mile(s):0
Sky conditions: partly cloudy
Temperature: 26 F (-3 C)
Dew Point: 24 F (-4 C)
Relative Humidity: 92%
Pressure (altimeter): 30.12 in. Hg (1020 hPa)
ob: LFCR 150300Z AUTO 13001KT 9999 // SCT007 M03/M04 Q1020
cycle: 3

Station Type Date Time Source
LFCR TAF 2018/12/14 18:27 UTC NOAA

TAF LFCR 141700Z 1418/1518 30007KT 9999 BKN010 PROB40
TEMPO 1418/1423 4000 BR OVC004
BECMG 1501/1503 VRB02KT CAVOK
TEMPO 1503/1509 2000 BR PROB40
TEMPO 1504/1507 0200 FG VV///
BECMG 1510/1512 12005KT BKN030
BECMG 1513/1515 -RA BKN014


Example: see airport list